createdAt,value
2023-05-09T00:01:13.242Z,40088.66
2023-05-09T00:03:40.524Z,40114.59
2023-05-09T00:06:07.268Z,40114.59
2023-05-09T00:08:33.686Z,40094.63
2023-05-09T00:11:00.846Z,40092.66
2023-05-09T00:13:27.577Z,40106.59
2023-05-09T00:15:54.061Z,40102.63
2023-05-09T00:18:22.016Z,40118.59
2023-05-09T00:20:50.038Z,40114.59
2023-05-09T00:23:16.782Z,40118.59
2023-05-09T00:25:43.399Z,40110.59
2023-05-09T00:28:09.852Z,40122.56
2023-05-09T00:30:36.774Z,40138.53
2023-05-09T00:33:03.301Z,40142.53
2023-05-09T00:35:32.124Z,40150.50
2023-05-09T00:37:59.371Z,40170.47
2023-05-09T00:40:25.998Z,40166.47
2023-05-09T00:42:52.456Z,40158.50
2023-05-09T00:45:18.909Z,40174.44
2023-05-09T00:47:45.580Z,40178.44
2023-05-09T00:50:12.109Z,40198.41
2023-05-09T00:52:38.959Z,40196.41
2023-05-09T00:55:08.207Z,40196.41
2023-05-09T00:57:35.063Z,40198.41
2023-05-09T01:00:01.760Z,40214.34
2023-05-09T01:02:28.641Z,40216.34
2023-05-09T01:04:55.928Z,40206.38
2023-05-09T01:07:37.579Z,40218.34
2023-05-09T01:10:16.894Z,40204.38
2023-05-09T01:12:56.029Z,40254.25
2023-05-09T01:15:39.339Z,40234.31
2023-05-09T01:18:43.149Z,40238.31
2023-05-09T01:21:20.556Z,40250.28
2023-05-09T01:23:59.331Z,40246.28
2023-05-09T01:26:43.281Z,40270.22
2023-05-09T01:29:34.476Z,40258.25
2023-05-09T01:32:07.239Z,40260.25
2023-05-09T01:34:35.304Z,40294.16
2023-05-09T01:37:05.096Z,40256.25
2023-05-09T01:39:33.819Z,40300.16
2023-05-09T01:42:02.600Z,40314.13
2023-05-09T01:44:42.992Z,40310.13
2023-05-09T01:47:10.660Z,40310.13
2023-05-09T01:49:38.547Z,40326.09
2023-05-09T01:52:11.275Z,40318.13
2023-05-09T01:54:40.079Z,40342.06
2023-05-09T01:57:08.013Z,40358.03
2023-05-09T01:59:35.935Z,40338.06
2023-05-09T02:02:07.758Z,40354.03
2023-05-09T02:04:35.732Z,40362.00
2023-05-09T02:07:05.199Z,40381.97
2023-05-09T02:09:31.869Z,40374.00
2023-05-09T02:11:58.303Z,40385.97
2023-05-09T02:14:24.725Z,40393.94
2023-05-09T02:16:51.302Z,40397.94
2023-05-09T02:19:17.819Z,40393.94
2023-05-09T02:21:44.436Z,40409.91
2023-05-09T02:24:11.224Z,40409.91
2023-05-09T02:26:39.125Z,40417.88
2023-05-09T02:29:07.596Z,40407.91
2023-05-09T02:31:35.376Z,40439.84
2023-05-09T02:34:04.699Z,40425.88
2023-05-09T02:36:32.626Z,40449.81
2023-05-09T02:39:01.165Z,40465.78
2023-05-09T02:41:30.034Z,40489.72
2023-05-09T02:43:56.454Z,40493.72
2023-05-09T02:46:23.025Z,40457.78
2023-05-09T02:48:49.444Z,40485.72
2023-05-09T02:51:15.990Z,40463.78
2023-05-09T02:53:42.512Z,40529.63
2023-05-09T02:56:10.745Z,40509.69
2023-05-09T02:58:37.158Z,40505.69
2023-05-09T03:01:04.069Z,40517.66
2023-05-09T03:03:34.201Z,40507.69
2023-05-09T03:06:03.273Z,40517.66
2023-05-09T03:08:29.992Z,40553.56
2023-05-09T03:10:57.053Z,40569.53
2023-05-09T03:13:23.760Z,40571.53
2023-05-09T03:15:50.297Z,40589.50
2023-05-09T03:18:17.302Z,40593.50
2023-05-09T03:20:43.728Z,40601.47
2023-05-09T03:23:10.357Z,40593.50
2023-05-09T03:25:37.039Z,40641.38
2023-05-09T03:28:05.664Z,40633.41
2023-05-09T03:30:32.079Z,40635.41
2023-05-09T03:32:59.056Z,40653.34
2023-05-09T03:35:25.650Z,40689.28
2023-05-09T03:37:53.780Z,40697.25
2023-05-09T03:40:20.556Z,40677.31
2023-05-09T03:42:53.369Z,40685.28
2023-05-09T03:45:20.027Z,40701.25
2023-05-09T03:47:47.309Z,40681.28
2023-05-09T03:50:15.146Z,40695.25
2023-05-09T03:52:43.161Z,40701.25
2023-05-09T03:55:10.778Z,40683.28
2023-05-09T03:57:37.329Z,40681.28
2023-05-09T04:00:06.620Z,40709.22
2023-05-09T04:02:40.492Z,40661.34
2023-05-09T04:05:08.559Z,40697.25
2023-05-09T04:07:37.297Z,40689.28
2023-05-09T04:10:05.128Z,40705.25
2023-05-09T04:12:32.009Z,40717.22
2023-05-09T04:14:58.676Z,40699.25
2023-05-09T04:17:25.322Z,40721.22
2023-05-09T04:19:52.217Z,40729.19
2023-05-09T04:22:19.123Z,40737.16
2023-05-09T04:24:45.626Z,40745.16
2023-05-09T04:27:12.060Z,40735.19
2023-05-09T04:29:39.111Z,40751.16
2023-05-09T04:32:05.654Z,40761.13
2023-05-09T04:34:32.333Z,40761.13
2023-05-09T04:37:03.776Z,40749.16
2023-05-09T04:39:30.934Z,40769.09
2023-05-09T04:42:05.980Z,40789.06
2023-05-09T04:44:33.207Z,40807.03
2023-05-09T04:47:00.221Z,40815.00
2023-05-09T04:49:27.605Z,40824.97
2023-05-09T04:51:54.057Z,40821.00
2023-05-09T04:54:21.273Z,40826.97
2023-05-09T04:56:50.845Z,40840.94
2023-05-09T04:59:18.056Z,40848.94
2023-05-09T05:01:45.787Z,40830.97
2023-05-09T05:04:13.035Z,40872.88
2023-05-09T05:06:40.285Z,40872.88
2023-05-09T05:09:06.988Z,40882.84
2023-05-09T05:11:33.448Z,40912.78
2023-05-09T05:14:00.077Z,40892.84
2023-05-09T05:16:26.765Z,40936.75
2023-05-09T05:18:53.266Z,40932.75
2023-05-09T05:21:20.805Z,40924.78
2023-05-09T05:23:48.281Z,40944.72
2023-05-09T05:26:15.601Z,40946.72
2023-05-09T05:28:42.358Z,40928.75
2023-05-09T05:31:08.807Z,40940.72
2023-05-09T05:33:35.273Z,40926.75
2023-05-09T05:36:02.392Z,40952.72
2023-05-09T05:38:29.349Z,40944.72
2023-05-09T05:40:57.298Z,40948.72
2023-05-09T05:43:25.295Z,40946.72
2023-05-09T05:45:51.832Z,40948.72
2023-05-09T05:48:21.891Z,40946.72
2023-05-09T05:50:48.291Z,40960.69
2023-05-09T05:53:17.536Z,40940.72
2023-05-09T05:55:45.835Z,40910.81
2023-05-09T05:58:12.613Z,40928.75
2023-05-09T06:00:39.898Z,40916.78
2023-05-09T06:03:08.583Z,40936.75
2023-05-09T06:05:49.631Z,40904.81
2023-05-09T06:08:16.136Z,40908.81
2023-05-09T06:10:42.521Z,40916.78
2023-05-09T06:13:08.977Z,40916.78
2023-05-09T06:15:38.401Z,40900.81
2023-05-09T06:18:04.944Z,40936.75
2023-05-09T06:20:31.442Z,40892.84
2023-05-09T06:22:58.230Z,40884.84
2023-05-09T06:25:24.945Z,40898.81
2023-05-09T06:27:51.328Z,40900.81
2023-05-09T06:30:26.282Z,40916.78
2023-05-09T06:32:54.336Z,40898.81
2023-05-09T06:35:20.828Z,40916.78
2023-05-09T06:37:48.780Z,40938.75
2023-05-09T06:40:16.557Z,40918.78
2023-05-09T06:42:43.079Z,40894.84
2023-05-09T06:45:09.988Z,40908.81
2023-05-09T06:47:36.510Z,40900.81
2023-05-09T06:50:03.644Z,40900.81
2023-05-09T06:52:30.194Z,40896.81
2023-05-09T06:54:56.561Z,40920.78
2023-05-09T06:57:23.177Z,40912.78
2023-05-09T06:59:49.579Z,40914.78
2023-05-09T07:02:16.201Z,40892.84
2023-05-09T07:04:43.189Z,40916.78
2023-05-09T07:07:09.936Z,40920.78
2023-05-09T07:09:36.861Z,40888.84
2023-05-09T07:12:04.074Z,40900.81
2023-05-09T07:14:30.908Z,40910.81
2023-05-09T07:17:09.869Z,40900.81
2023-05-09T07:19:43.644Z,40884.84
2023-05-09T07:22:10.026Z,40916.78
2023-05-09T07:24:36.461Z,40866.91
2023-05-09T07:27:03.768Z,40876.88
2023-05-09T07:29:30.159Z,40876.88
2023-05-09T07:31:56.567Z,40848.94
2023-05-09T07:34:25.180Z,40846.94
2023-05-09T07:36:51.650Z,40886.84
2023-05-09T07:39:18.068Z,40884.84
2023-05-09T07:41:44.457Z,40900.81
2023-05-09T07:44:11.015Z,40900.81
2023-05-09T07:46:38.423Z,40916.78
2023-05-09T07:49:04.833Z,40872.88
2023-05-09T07:51:32.081Z,40852.91
2023-05-09T07:53:58.470Z,40868.88
2023-05-09T07:56:26.327Z,40844.94
2023-05-09T07:58:54.960Z,40860.91
2023-05-09T08:01:22.067Z,40856.91
2023-05-09T08:03:48.600Z,40874.88
2023-05-09T08:06:15.527Z,40868.88
2023-05-09T08:08:41.907Z,40864.91
2023-05-09T08:11:08.345Z,40874.88
2023-05-09T08:13:35.050Z,40888.84
2023-05-09T08:16:02.201Z,40860.91
2023-05-09T08:18:28.631Z,40884.84
2023-05-09T08:20:55.236Z,40876.88
2023-05-09T08:23:21.698Z,40874.88
2023-05-09T08:25:52.238Z,40868.88
2023-05-09T08:28:19.064Z,40854.91
2023-05-09T08:30:45.434Z,40819.00
2023-05-09T08:33:11.835Z,40824.97
2023-05-09T08:35:38.307Z,40787.06
2023-05-09T08:38:04.909Z,40797.03
2023-05-09T08:40:35.897Z,40767.09
2023-05-09T08:43:06.013Z,40793.06
2023-05-09T08:45:45.319Z,40741.16
2023-05-09T08:48:12.940Z,40711.22
2023-05-09T08:50:40.214Z,40709.22
2023-05-09T08:53:06.976Z,40715.22
2023-05-09T08:55:33.396Z,40661.34
2023-05-09T08:58:00.629Z,40669.31
2023-05-09T09:00:28.338Z,40695.25
2023-05-09T09:02:56.980Z,40707.25
2023-05-09T09:05:40.073Z,40689.28
2023-05-09T09:08:09.314Z,40669.31
2023-05-09T09:10:39.168Z,40661.34
2023-05-09T09:13:06.079Z,40659.34
2023-05-09T09:15:36.956Z,40649.38
2023-05-09T09:18:09.780Z,40635.41
2023-05-09T09:20:44.849Z,40665.34
2023-05-09T09:23:13.649Z,40661.34
2023-05-09T09:25:40.118Z,40657.34
2023-05-09T09:28:06.663Z,40693.28
2023-05-09T09:30:33.242Z,40621.44
2023-05-09T09:33:00.224Z,40609.44
2023-05-09T09:35:26.644Z,40609.44
2023-05-09T09:38:00.446Z,40615.44
2023-05-09T09:40:26.867Z,40617.44
2023-05-09T09:42:53.262Z,40601.47
2023-05-09T09:45:20.407Z,40613.44
2023-05-09T09:47:48.482Z,40585.50
2023-05-09T09:50:17.751Z,40609.44
2023-05-09T09:52:56.075Z,40611.44
2023-05-09T09:55:24.191Z,40551.59
2023-05-09T09:57:51.475Z,40581.50
2023-05-09T10:00:28.395Z,40589.50
2023-05-09T10:02:56.866Z,40541.59
2023-05-09T10:05:24.307Z,40557.56
2023-05-09T10:08:01.904Z,40557.56
2023-05-09T10:10:36.041Z,40523.66
2023-05-09T10:13:10.656Z,40511.66
2023-05-09T10:15:52.253Z,40545.59
2023-05-09T10:18:27.263Z,40557.56
2023-05-09T10:20:54.923Z,40543.59
2023-05-09T10:23:23.982Z,40561.56
2023-05-09T10:26:02.080Z,40521.66
2023-05-09T10:28:31.936Z,40549.59
2023-05-09T10:31:12.045Z,40513.66
2023-05-09T10:33:48.876Z,40537.63
2023-05-09T10:36:17.412Z,40481.75
2023-05-09T10:38:44.769Z,40469.78
2023-05-09T10:41:12.150Z,40453.81
2023-05-09T10:43:39.812Z,40455.81
2023-05-09T10:46:06.994Z,40461.78
2023-05-09T10:48:33.942Z,40473.75
2023-05-09T10:51:02.186Z,40459.78
2023-05-09T10:53:40.396Z,40481.75
2023-05-09T10:56:07.178Z,40441.84
2023-05-09T10:58:36.229Z,40473.75
2023-05-09T11:01:04.501Z,40505.69
2023-05-09T11:03:54.415Z,40489.72
2023-05-09T11:06:43.873Z,40477.75
2023-05-09T11:09:37.117Z,40483.75
2023-05-09T11:12:15.937Z,40485.72
2023-05-09T11:14:44.686Z,40473.75
2023-05-09T11:17:15.039Z,40455.81
2023-05-09T11:19:47.598Z,40479.75
2023-05-09T11:22:15.121Z,40481.75
2023-05-09T11:24:47.131Z,40485.72
2023-05-09T11:27:30.990Z,40547.59
2023-05-09T11:29:59.322Z,40573.53
2023-05-09T11:32:32.179Z,40573.53
2023-05-09T11:35:09.402Z,40573.53
2023-05-09T11:37:48.257Z,40561.56
2023-05-09T11:40:17.286Z,40531.63
2023-05-09T11:42:49.235Z,40521.66
2023-05-09T11:45:17.375Z,40509.69
2023-05-09T11:47:46.106Z,40497.72
2023-05-09T11:50:14.407Z,40505.69
2023-05-09T11:52:41.804Z,40523.66
2023-05-09T11:55:12.535Z,40561.56
2023-05-09T11:57:41.064Z,40533.63
2023-05-09T12:00:10.258Z,40511.66
2023-05-09T12:02:37.559Z,40483.75
2023-05-09T12:05:13.024Z,40511.66
2023-05-09T12:07:40.448Z,40489.72
2023-05-09T12:10:12.670Z,40513.66
2023-05-09T12:12:44.518Z,40545.59
2023-05-09T12:15:13.227Z,40543.59
2023-05-09T12:17:44.176Z,40557.56
2023-05-09T12:20:11.088Z,40577.53
2023-05-09T12:22:37.717Z,40599.47
2023-05-09T12:25:10.054Z,40681.28
2023-05-09T12:27:38.690Z,40739.16
2023-05-09T12:30:15.882Z,40848.94
2023-05-09T12:32:43.507Z,40862.91
2023-05-09T12:35:10.605Z,40844.94
2023-05-09T12:37:37.560Z,40856.91
2023-05-09T12:40:07.065Z,40858.91
2023-05-09T12:42:35.152Z,40884.84
2023-05-09T12:45:03.046Z,40896.81
2023-05-09T12:47:31.600Z,40920.78
2023-05-09T12:50:02.836Z,40914.78
2023-05-09T12:52:54.056Z,40948.72
2023-05-09T12:55:25.245Z,40936.75
2023-05-09T12:58:03.166Z,40968.69
2023-05-09T13:00:42.119Z,40976.66
2023-05-09T13:03:31.353Z,41012.59
2023-05-09T13:06:02.043Z,41120.34
2023-05-09T13:08:29.424Z,41220.16
2023-05-09T13:11:07.785Z,41347.91
2023-05-09T13:13:34.717Z,41575.44
2023-05-09T13:16:04.109Z,41757.09
2023-05-09T13:18:30.695Z,41960.72
2023-05-09T13:20:57.151Z,42088.50
2023-05-09T13:23:24.052Z,42210.28
2023-05-09T13:25:51.343Z,42288.16
2023-05-09T13:28:17.738Z,42324.09
2023-05-09T13:30:45.639Z,42326.09
2023-05-09T13:33:24.671Z,42318.09
2023-05-09T13:35:52.624Z,42364.00
2023-05-09T13:38:19.044Z,42391.97
2023-05-09T13:40:45.710Z,42405.94
2023-05-09T13:43:12.091Z,42437.88
2023-05-09T13:45:38.755Z,42453.88
2023-05-09T13:48:05.346Z,42429.91
2023-05-09T13:50:31.738Z,42481.81
2023-05-09T13:52:58.537Z,42455.88
2023-05-09T13:55:26.875Z,42489.81
2023-05-09T13:57:53.374Z,42503.78
2023-05-09T14:00:21.210Z,42547.72
2023-05-09T14:02:48.141Z,42557.69
2023-05-09T14:05:16.898Z,42589.63
2023-05-09T14:07:43.504Z,42589.63
2023-05-09T14:10:12.093Z,42591.63
2023-05-09T14:12:39.919Z,42603.63
2023-05-09T14:15:07.671Z,42607.59
2023-05-09T14:17:34.164Z,42615.59
2023-05-09T14:20:00.857Z,42607.59
2023-05-09T14:22:28.101Z,42623.59
2023-05-09T14:24:56.455Z,42653.53
2023-05-09T14:27:22.968Z,42689.47
2023-05-09T14:29:49.557Z,42713.44
2023-05-09T14:32:16.023Z,42733.41
2023-05-09T14:34:42.450Z,42741.41
2023-05-09T14:37:13.576Z,42775.34
2023-05-09T14:39:42.473Z,42785.31
2023-05-09T14:42:11.233Z,42765.34
2023-05-09T14:44:38.495Z,42757.38
2023-05-09T14:47:05.043Z,42773.34
2023-05-09T14:49:31.886Z,42777.34
2023-05-09T14:51:58.310Z,42765.34
2023-05-09T14:54:24.899Z,42785.31
2023-05-09T14:56:51.705Z,42765.34
2023-05-09T14:59:18.169Z,42759.38
2023-05-09T15:01:45.553Z,42759.38
2023-05-09T15:04:12.098Z,42781.34
2023-05-09T15:06:39.524Z,42781.34
2023-05-09T15:09:06.141Z,42823.25
2023-05-09T15:11:46.259Z,42829.25
2023-05-09T15:14:13.749Z,42805.28
2023-05-09T15:16:40.496Z,42811.28
2023-05-09T15:19:08.226Z,42811.28
2023-05-09T15:21:35.040Z,42805.28
2023-05-09T15:24:02.201Z,42837.25
2023-05-09T15:26:29.125Z,42825.25
2023-05-09T15:28:55.500Z,42817.28
2023-05-09T15:31:23.326Z,42837.25
2023-05-09T15:33:49.752Z,42809.28
2023-05-09T15:36:16.348Z,42813.28
2023-05-09T15:38:48.134Z,42819.28
2023-05-09T15:41:15.262Z,42841.25
2023-05-09T15:43:42.175Z,42817.28
2023-05-09T15:46:08.880Z,42833.25
2023-05-09T15:48:35.495Z,42823.25
2023-05-09T15:51:02.527Z,42823.25
2023-05-09T15:53:29.293Z,42831.25
2023-05-09T15:55:56.882Z,42825.25
2023-05-09T15:58:23.449Z,42849.22
2023-05-09T16:00:50.018Z,42845.22
2023-05-09T16:03:16.700Z,42837.25
2023-05-09T16:05:43.962Z,42829.25
2023-05-09T16:08:11.012Z,42833.25
2023-05-09T16:10:37.430Z,42831.25
2023-05-09T16:13:04.371Z,42831.25
2023-05-09T16:15:30.797Z,42821.28
2023-05-09T16:17:57.268Z,42841.25
2023-05-09T16:20:23.693Z,42837.25
2023-05-09T16:22:50.119Z,42853.22
2023-05-09T16:25:16.662Z,42857.22
2023-05-09T16:27:43.141Z,42825.25
2023-05-09T16:30:10.183Z,42847.22
2023-05-09T16:32:36.813Z,42829.25
2023-05-09T16:35:04.110Z,42853.22
2023-05-09T16:37:30.515Z,42847.22
2023-05-09T16:39:57.860Z,42833.25
2023-05-09T16:42:24.228Z,42833.25
2023-05-09T16:44:50.923Z,42837.25
2023-05-09T16:47:17.302Z,42853.22
2023-05-09T16:49:43.744Z,42845.22
2023-05-09T16:52:10.158Z,42831.25
2023-05-09T16:54:36.530Z,42821.28
2023-05-09T16:57:03.217Z,42825.25
2023-05-09T16:59:29.667Z,42829.25
2023-05-09T17:01:57.567Z,42837.25
2023-05-09T17:04:25.177Z,42821.28
2023-05-09T17:06:51.981Z,42835.25
2023-05-09T17:09:18.582Z,42817.28
2023-05-09T17:11:45.044Z,42825.25
2023-05-09T17:14:11.440Z,42821.28
2023-05-09T17:16:38.287Z,42831.25
2023-05-09T17:19:04.992Z,42837.25
2023-05-09T17:21:32.065Z,42829.25
2023-05-09T17:23:58.543Z,42829.25
2023-05-09T17:26:25.741Z,42837.25
2023-05-09T17:28:52.147Z,42811.28
2023-05-09T17:31:18.806Z,42825.25
2023-05-09T17:33:45.373Z,42833.25
2023-05-09T17:36:11.764Z,42817.28
2023-05-09T17:38:38.249Z,42809.28
2023-05-09T17:41:04.870Z,42813.28
2023-05-09T17:43:31.859Z,42825.25
2023-05-09T17:45:58.803Z,42811.28
2023-05-09T17:48:25.416Z,42807.28
2023-05-09T17:50:52.598Z,42797.31
2023-05-09T17:53:19.105Z,42813.28
2023-05-09T17:55:45.649Z,42837.25
2023-05-09T17:58:13.887Z,42799.31
2023-05-09T18:00:40.712Z,42825.25
2023-05-09T18:03:08.846Z,42819.28
2023-05-09T18:05:35.299Z,42827.25
2023-05-09T18:08:03.367Z,42793.31
2023-05-09T18:10:29.990Z,42809.28
2023-05-09T18:12:56.882Z,42801.31
2023-05-09T18:15:24.417Z,42807.28
2023-05-09T18:17:50.954Z,42817.28
2023-05-09T18:20:17.868Z,42799.31
2023-05-09T18:22:44.503Z,42791.31
2023-05-09T18:25:11.296Z,42801.31
2023-05-09T18:27:38.225Z,42799.31
2023-05-09T18:30:05.036Z,42801.31
2023-05-09T18:32:32.185Z,42801.31
2023-05-09T18:34:58.650Z,42801.31
2023-05-09T18:37:25.481Z,42803.28
2023-05-09T18:39:51.891Z,42773.34
2023-05-09T18:42:18.375Z,42785.31
2023-05-09T18:44:44.874Z,42801.31
2023-05-09T18:47:11.926Z,42783.34
2023-05-09T18:49:38.777Z,42791.31
2023-05-09T18:52:05.159Z,42787.31
2023-05-09T18:54:32.109Z,42785.31
2023-05-09T18:56:59.005Z,42785.31
2023-05-09T18:59:25.450Z,42789.31
2023-05-09T19:01:51.919Z,42773.34
2023-05-09T19:04:19.341Z,42781.34
2023-05-09T19:06:46.598Z,42801.31
2023-05-09T19:09:13.016Z,42781.34
2023-05-09T19:11:39.395Z,42795.31
2023-05-09T19:14:05.841Z,42775.34
2023-05-09T19:16:32.392Z,42801.31
2023-05-09T19:18:59.057Z,42781.34
2023-05-09T19:21:25.538Z,42781.34
2023-05-09T19:23:52.361Z,42799.31
2023-05-09T19:26:19.776Z,42791.31
2023-05-09T19:28:46.837Z,42771.34
2023-05-09T19:31:14.730Z,42787.31
2023-05-09T19:33:42.702Z,42795.31
2023-05-09T19:36:09.187Z,42777.34
2023-05-09T19:38:35.893Z,42797.31
2023-05-09T19:41:02.358Z,42797.31
2023-05-09T19:43:28.806Z,42795.31
2023-05-09T19:45:55.247Z,42805.28
2023-05-09T19:48:21.756Z,42809.28
2023-05-09T19:50:48.182Z,42805.28
2023-05-09T19:53:14.829Z,42813.28
2023-05-09T19:55:43.695Z,42819.28
2023-05-09T19:58:10.130Z,42787.31
2023-05-09T20:00:38.644Z,42805.28
2023-05-09T20:03:05.071Z,42811.28
2023-05-09T20:05:31.503Z,42809.28
2023-05-09T20:07:57.910Z,42821.28
2023-05-09T20:10:24.338Z,42811.28
2023-05-09T20:12:50.854Z,42795.31
2023-05-09T20:15:17.676Z,42795.31
2023-05-09T20:17:44.511Z,42787.31
2023-05-09T20:20:11.550Z,42783.34
2023-05-09T20:22:38.052Z,42797.31
2023-05-09T20:25:05.165Z,42781.34
2023-05-09T20:27:31.661Z,42783.34
2023-05-09T20:29:58.054Z,42795.31
2023-05-09T20:32:24.545Z,42801.31
2023-05-09T20:34:50.964Z,42805.28
2023-05-09T20:37:17.382Z,42781.34
2023-05-09T20:39:44.034Z,42775.34
2023-05-09T20:42:10.677Z,42781.34
2023-05-09T20:44:39.095Z,42793.31
2023-05-09T20:47:05.795Z,42777.34
2023-05-09T20:49:32.286Z,42797.31
2023-05-09T20:51:58.647Z,42795.31
2023-05-09T20:54:25.788Z,42769.34
2023-05-09T20:56:52.208Z,42789.31
2023-05-09T20:59:18.697Z,42797.31
2023-05-09T21:01:45.199Z,42773.34
2023-05-09T21:04:11.624Z,42785.31
2023-05-09T21:06:38.582Z,42789.31
2023-05-09T21:09:09.267Z,42793.31
2023-05-09T21:11:37.117Z,42785.31
2023-05-09T21:14:03.862Z,42779.34
2023-05-09T21:16:30.675Z,42773.34
2023-05-09T21:18:58.520Z,42779.34
2023-05-09T21:21:24.963Z,42781.34
2023-05-09T21:23:51.382Z,42777.34
2023-05-09T21:26:18.338Z,42763.34
2023-05-09T21:28:44.718Z,42789.31
2023-05-09T21:31:11.689Z,42769.34
2023-05-09T21:33:38.481Z,42777.34
2023-05-09T21:36:05.047Z,42765.34
2023-05-09T21:38:31.464Z,42783.34
2023-05-09T21:40:58.276Z,42785.31
2023-05-09T21:43:24.663Z,42765.34
2023-05-09T21:45:51.043Z,42767.34
2023-05-09T21:48:17.583Z,42765.34
2023-05-09T21:50:45.891Z,42751.38
2023-05-09T21:53:12.945Z,42761.38
2023-05-09T21:55:39.329Z,42761.38
2023-05-09T21:58:05.766Z,42753.38
2023-05-09T22:00:32.136Z,42747.38
2023-05-09T22:02:58.965Z,42741.41
2023-05-09T22:05:25.526Z,42759.38
2023-05-09T22:07:51.920Z,42755.38
2023-05-09T22:10:18.980Z,42755.38
2023-05-09T22:12:45.833Z,42729.41
2023-05-09T22:15:12.713Z,42753.38
2023-05-09T22:17:39.607Z,42741.41
2023-05-09T22:20:06.990Z,42745.38
2023-05-09T22:22:33.904Z,42725.41
2023-05-09T22:25:00.415Z,42749.38
2023-05-09T22:27:26.789Z,42737.41
2023-05-09T22:29:53.691Z,42729.41
2023-05-09T22:32:20.111Z,42707.44
2023-05-09T22:34:48.070Z,42707.44
2023-05-09T22:37:15.349Z,42703.47
2023-05-09T22:39:45.575Z,42705.44
2023-05-09T22:42:12.089Z,42697.47
2023-05-09T22:44:39.304Z,42689.47
2023-05-09T22:47:07.665Z,42693.47
2023-05-09T22:49:34.110Z,42677.50
2023-05-09T22:52:00.857Z,42687.47
2023-05-09T22:54:27.279Z,42701.47
2023-05-09T22:56:53.765Z,42691.47
2023-05-09T22:59:20.328Z,42671.50
2023-05-09T23:01:47.786Z,42669.50
2023-05-09T23:04:14.182Z,42669.50
2023-05-09T23:06:40.708Z,42665.50
2023-05-09T23:09:07.758Z,42661.53
2023-05-09T23:11:34.109Z,42673.50
2023-05-09T23:14:00.526Z,42665.50
2023-05-09T23:16:27.142Z,42659.53
2023-05-09T23:18:54.250Z,42669.50
2023-05-09T23:21:20.636Z,42645.56
2023-05-09T23:23:47.200Z,42651.53
2023-05-09T23:26:13.860Z,42619.59
2023-05-09T23:28:40.395Z,42623.59
2023-05-09T23:31:06.847Z,42607.59
2023-05-09T23:33:33.383Z,42619.59
2023-05-09T23:35:59.877Z,42621.59
2023-05-09T23:38:26.344Z,42617.59
2023-05-09T23:40:53.769Z,42625.59
2023-05-09T23:43:20.154Z,42611.59
2023-05-09T23:45:46.732Z,42609.59
2023-05-09T23:48:13.130Z,42613.59
2023-05-09T23:50:39.554Z,42623.59
2023-05-09T23:53:06.403Z,42609.59
2023-05-09T23:55:33.213Z,42609.59
2023-05-09T23:58:00.631Z,42617.59
